Cleveland, Ohio
Traffic Map
Current Weather Conditions
Cleveland, Ohio
Overcast
Overcast
60°
Feels Like: 60°
Wind Chill: 60° Ceiling: 4100
Heat Index: 60° Visibility: 10mi
Dew Point: 53° Wind: 13mph
Humidity: 78% Direction: 360° (N)
Pressure: 29.96in Gusts: 0mph
Raw Report DataKBKL 302353Z 36011KT 10SM FEW020 OVC041 16/12 A2996 RMK AO2 SLP144 T01560117 10161 20156 51010
Traffic Incident Summary
Active as of:
Severity:
Category:
InformationThere was an issue retrieving the traffic information for this location. Please try a different location or try again shortly.
Advertisements
Track Severe Weather on mobile